Terminal Aerodrome Forecast
Issued by NWS

Home | Current Version | Previous Version | Text Only | Print | Product List | Glossary Off
Versions: 1 2 3 4 5 6 7 8 9 10 11 12 13 14 15 16 17 18 19 20 21 22 23

000
FTUS43 KTOP 290001 CCA
TAFMHK
TAF COR
KMHK 290001Z 2900/2924 30010KT P6SM -TSRA BKN035CB
     FM290100 30010KT P6SM BKN035
     FM290900 35005KT 5SM BR BKN015
     FM291600 36009KT P6SM OVC020
     FM292100 02007KT P6SM SCT025=

USA.gov is the U.S. government's official web portal to all federal, state and local government web resources and services.